createdAt,value
2023-02-17T00:02:12.860Z,55.73
2023-02-17T00:04:39.777Z,55.97
2023-02-17T00:07:06.671Z,56.88
2023-02-17T00:09:33.704Z,57.39
2023-02-17T00:12:00.556Z,56.64
2023-02-17T00:14:27.413Z,56.32
2023-02-17T00:16:54.320Z,56.05
2023-02-17T00:19:22.355Z,56.29
2023-02-17T00:21:51.435Z,55.95
2023-02-17T00:24:18.364Z,55.73
2023-02-17T00:26:45.364Z,55.19
2023-02-17T00:29:12.309Z,55.27
2023-02-17T00:31:39.870Z,54.28
2023-02-17T00:34:06.955Z,54.21
2023-02-17T00:36:33.886Z,53.76
2023-02-17T00:39:01.380Z,53.83
2023-02-17T00:41:29.100Z,53.73
2023-02-17T00:43:57.775Z,53.46
2023-02-17T00:46:26.005Z,54.06
2023-02-17T00:48:53.761Z,53.66
2023-02-17T00:51:21.748Z,54.07
2023-02-17T00:53:48.824Z,53.27
2023-02-17T00:56:15.925Z,52.80
2023-02-17T00:58:44.279Z,53.73
2023-02-17T01:01:12.120Z,53.53
2023-02-17T01:03:41.196Z,54.25
2023-02-17T01:06:10.953Z,54.17
2023-02-17T01:08:37.846Z,54.29
2023-02-17T01:11:05.115Z,54.30
2023-02-17T01:13:32.327Z,54.46
2023-02-17T01:15:59.693Z,54.49
2023-02-17T01:18:26.597Z,54.23
2023-02-17T01:20:53.473Z,54.90
2023-02-17T01:23:20.690Z,54.45
2023-02-17T01:25:48.540Z,54.48
2023-02-17T01:28:18.491Z,54.78
2023-02-17T01:30:47.382Z,53.99
2023-02-17T01:33:14.528Z,53.75
2023-02-17T01:35:41.610Z,53.46
2023-02-17T01:38:08.613Z,52.29
2023-02-17T01:40:35.822Z,52.38
2023-02-17T01:43:03.928Z,52.64
2023-02-17T01:45:41.618Z,52.27
2023-02-17T01:48:16.957Z,52.19
2023-02-17T01:51:14.143Z,52.43
2023-02-17T01:53:50.178Z,52.18
2023-02-17T01:56:18.076Z,51.97
2023-02-17T01:58:52.034Z,51.80
2023-02-17T02:01:20.378Z,52.34
2023-02-17T02:03:48.257Z,52.09
2023-02-17T02:06:20.672Z,51.82
2023-02-17T02:09:03.487Z,51.88
2023-02-17T02:11:30.715Z,51.85
2023-02-17T02:13:59.168Z,51.59
2023-02-17T02:16:35.343Z,52.38
2023-02-17T02:19:24.102Z,52.07
2023-02-17T02:22:03.211Z,52.39
2023-02-17T02:24:46.366Z,52.09
2023-02-17T02:27:25.937Z,51.84
2023-02-17T02:30:02.656Z,51.97
2023-02-17T02:32:48.688Z,52.29
2023-02-17T02:35:50.459Z,51.62
2023-02-17T02:38:43.405Z,51.84
2023-02-17T02:41:24.109Z,51.16
2023-02-17T02:43:52.509Z,51.56
2023-02-17T02:46:19.671Z,50.96
2023-02-17T02:48:47.941Z,51.50
2023-02-17T02:51:14.812Z,51.83
2023-02-17T02:54:03.787Z,51.93
2023-02-17T02:57:03.198Z,51.94
2023-02-17T02:59:32.104Z,53.00
2023-02-17T03:02:17.100Z,53.04
2023-02-17T03:05:00.848Z,52.47
2023-02-17T03:07:38.206Z,52.08
2023-02-17T03:10:07.711Z,52.62
2023-02-17T03:12:38.143Z,52.40
2023-02-17T03:15:14.378Z,52.31
2023-02-17T03:17:41.398Z,52.50
2023-02-17T03:20:09.610Z,52.76
2023-02-17T03:22:45.024Z,53.42
2023-02-17T03:25:15.028Z,52.54
2023-02-17T03:27:43.269Z,52.42
2023-02-17T03:30:11.549Z,52.99
2023-02-17T03:32:38.564Z,52.67
2023-02-17T03:35:06.185Z,52.50
2023-02-17T03:37:33.259Z,53.41
2023-02-17T03:40:00.465Z,52.88
2023-02-17T03:42:27.350Z,52.49
2023-02-17T03:44:54.337Z,52.20
2023-02-17T03:47:21.262Z,53.14
2023-02-17T03:49:48.102Z,53.04
2023-02-17T03:52:15.178Z,52.58
2023-02-17T03:54:42.128Z,52.58
2023-02-17T03:57:09.062Z,52.60
2023-02-17T03:59:36.584Z,52.55
2023-02-17T04:02:04.122Z,52.61
2023-02-17T04:04:31.025Z,52.25
2023-02-17T04:06:58.055Z,52.60
2023-02-17T04:09:24.954Z,52.77
2023-02-17T04:11:51.842Z,52.73
2023-02-17T04:14:18.825Z,52.94
2023-02-17T04:16:45.777Z,53.00
2023-02-17T04:19:12.699Z,53.16
2023-02-17T04:21:39.662Z,53.04
2023-02-17T04:24:06.721Z,53.23
2023-02-17T04:26:33.731Z,52.89
2023-02-17T04:29:00.710Z,52.78
2023-02-17T04:31:27.652Z,53.49
2023-02-17T04:33:54.593Z,53.72
2023-02-17T04:36:21.629Z,53.39
2023-02-17T04:38:48.970Z,53.11
2023-02-17T04:41:15.873Z,53.68
2023-02-17T04:43:42.846Z,53.36
2023-02-17T04:46:10.075Z,52.82
2023-02-17T04:48:37.419Z,53.38
2023-02-17T04:51:05.018Z,53.02
2023-02-17T04:53:32.367Z,53.53
2023-02-17T04:55:59.446Z,53.49
2023-02-17T04:58:26.422Z,53.31
2023-02-17T05:00:53.363Z,53.11
2023-02-17T05:03:20.337Z,52.91
2023-02-17T05:05:47.259Z,52.37
2023-02-17T05:08:14.098Z,52.12
2023-02-17T05:10:41.049Z,51.75
2023-02-17T05:13:08.244Z,51.58
2023-02-17T05:15:35.524Z,51.55
2023-02-17T05:18:02.874Z,51.43
2023-02-17T05:20:29.901Z,50.97
2023-02-17T05:22:56.756Z,49.76
2023-02-17T05:25:23.683Z,50.55
2023-02-17T05:27:50.655Z,50.89
2023-02-17T05:30:17.640Z,51.49
2023-02-17T05:32:44.590Z,50.61
2023-02-17T05:35:11.715Z,51.12
2023-02-17T05:37:38.659Z,50.70
2023-02-17T05:40:06.501Z,50.55
2023-02-17T05:42:33.458Z,51.61
2023-02-17T05:45:00.437Z,51.05
2023-02-17T05:47:27.754Z,51.22
2023-02-17T05:49:54.822Z,50.90
2023-02-17T05:52:23.143Z,51.53
2023-02-17T05:54:50.001Z,51.08
2023-02-17T05:57:16.926Z,50.01
2023-02-17T05:59:43.907Z,50.76
2023-02-17T06:02:10.939Z,51.00
2023-02-17T06:04:38.037Z,51.14
2023-02-17T06:07:04.937Z,50.24
2023-02-17T06:09:31.852Z,48.67
2023-02-17T06:11:58.765Z,48.54
2023-02-17T06:14:25.730Z,48.38
2023-02-17T06:16:52.606Z,48.55
2023-02-17T06:19:19.595Z,48.12
2023-02-17T06:21:46.633Z,47.75
2023-02-17T06:24:13.506Z,48.07
2023-02-17T06:26:40.403Z,47.57
2023-02-17T06:29:07.584Z,47.02
2023-02-17T06:31:35.045Z,46.57
2023-02-17T06:34:02.028Z,46.94
2023-02-17T06:36:28.871Z,46.67
2023-02-17T06:38:55.701Z,46.86
2023-02-17T06:41:22.635Z,46.06
2023-02-17T06:43:49.510Z,46.30
2023-02-17T06:46:16.437Z,46.06
2023-02-17T06:48:43.444Z,46.23
2023-02-17T06:51:10.381Z,47.37
2023-02-17T06:53:37.246Z,46.78
2023-02-17T06:56:04.663Z,46.54
2023-02-17T06:58:31.827Z,46.12
2023-02-17T07:00:59.034Z,45.96
2023-02-17T07:03:26.187Z,46.14
2023-02-17T07:05:57.414Z,45.90
2023-02-17T07:08:24.964Z,46.10
2023-02-17T07:10:51.945Z,46.49
2023-02-17T07:13:18.959Z,45.91
2023-02-17T07:15:45.874Z,45.90
2023-02-17T07:18:12.919Z,46.63
2023-02-17T07:20:39.816Z,46.10
2023-02-17T07:23:06.960Z,46.49
2023-02-17T07:25:33.854Z,45.90
2023-02-17T07:28:00.833Z,45.24
2023-02-17T07:30:27.715Z,46.14
2023-02-17T07:32:54.846Z,46.06
2023-02-17T07:35:21.956Z,45.68
2023-02-17T07:37:48.917Z,45.11
2023-02-17T07:40:15.814Z,45.45
2023-02-17T07:42:42.890Z,43.94
2023-02-17T07:45:09.889Z,44.34
2023-02-17T07:47:36.893Z,44.18
2023-02-17T07:50:03.770Z,44.31
2023-02-17T07:52:30.796Z,43.24
2023-02-17T07:54:57.729Z,43.58
2023-02-17T07:57:24.687Z,44.14
2023-02-17T07:59:51.673Z,44.05
2023-02-17T08:02:19.115Z,43.45
2023-02-17T08:04:46.026Z,44.42
2023-02-17T08:07:13.343Z,44.88
2023-02-17T08:09:40.302Z,44.53
2023-02-17T08:12:15.386Z,44.43
2023-02-17T08:14:42.401Z,44.88
2023-02-17T08:17:09.359Z,43.76
2023-02-17T08:19:47.604Z,42.91
2023-02-17T08:22:17.476Z,42.03
2023-02-17T08:24:45.025Z,42.75
2023-02-17T08:27:12.103Z,41.59
2023-02-17T08:29:39.107Z,42.02
2023-02-17T08:32:06.181Z,41.64
2023-02-17T08:34:33.233Z,43.03
2023-02-17T08:37:04.795Z,42.73
2023-02-17T08:39:33.364Z,41.98
2023-02-17T08:42:00.969Z,42.10
2023-02-17T08:44:28.035Z,41.56
2023-02-17T08:46:55.910Z,42.65
2023-02-17T08:49:25.625Z,41.48
2023-02-17T08:51:52.770Z,41.80
2023-02-17T08:54:20.046Z,41.29
2023-02-17T08:56:46.979Z,40.47
2023-02-17T08:59:13.972Z,39.96
2023-02-17T09:01:42.789Z,39.56
2023-02-17T09:04:11.982Z,39.35
2023-02-17T09:06:51.161Z,39.66
2023-02-17T09:09:21.180Z,39.22
2023-02-17T09:11:48.884Z,39.91
2023-02-17T09:14:16.058Z,39.71
2023-02-17T09:16:42.943Z,39.78
2023-02-17T09:19:09.963Z,39.29
2023-02-17T09:21:36.979Z,39.77
2023-02-17T09:24:04.148Z,40.33
2023-02-17T09:26:31.045Z,39.80
2023-02-17T09:28:58.068Z,40.58
2023-02-17T09:31:26.659Z,40.13
2023-02-17T09:33:54.499Z,38.96
2023-02-17T09:36:28.367Z,39.03
2023-02-17T09:38:56.791Z,39.05
2023-02-17T09:41:39.308Z,38.86
2023-02-17T09:44:13.812Z,39.25
2023-02-17T09:47:00.664Z,38.75
2023-02-17T09:49:35.380Z,39.22
2023-02-17T09:52:17.173Z,38.74
2023-02-17T09:55:08.186Z,38.20
2023-02-17T09:57:43.897Z,37.63
2023-02-17T10:00:16.284Z,37.98
2023-02-17T10:02:55.676Z,37.97
2023-02-17T10:05:28.422Z,38.66
2023-02-17T10:08:05.467Z,38.37
2023-02-17T10:10:41.910Z,38.13
2023-02-17T10:13:09.764Z,38.22
2023-02-17T10:15:43.240Z,37.90
2023-02-17T10:18:28.243Z,38.04
2023-02-17T10:21:17.434Z,38.11
2023-02-17T10:23:44.679Z,38.10
2023-02-17T10:26:32.951Z,38.56
2023-02-17T10:29:26.117Z,38.33
2023-02-17T10:32:27.302Z,38.26
2023-02-17T10:35:15.889Z,37.95
2023-02-17T10:37:56.277Z,37.71
2023-02-17T10:40:29.221Z,38.05
2023-02-17T10:43:01.110Z,38.30
2023-02-17T10:45:33.661Z,39.16
2023-02-17T10:48:08.876Z,38.98
2023-02-17T10:50:38.282Z,38.88
2023-02-17T10:53:25.858Z,39.28
2023-02-17T10:56:12.231Z,39.76
2023-02-17T10:58:54.322Z,39.25
2023-02-17T11:01:21.507Z,40.05
2023-02-17T11:03:58.844Z,39.79
2023-02-17T11:06:25.987Z,39.69
2023-02-17T11:08:59.886Z,40.56
2023-02-17T11:11:32.307Z,42.24
2023-02-17T11:14:08.358Z,41.57
2023-02-17T11:16:37.670Z,41.19
2023-02-17T11:19:07.218Z,41.38
2023-02-17T11:21:34.310Z,41.50
2023-02-17T11:24:06.649Z,42.52
2023-02-17T11:26:35.581Z,42.25
2023-02-17T11:29:21.919Z,42.55
2023-02-17T11:32:01.513Z,42.31
2023-02-17T11:34:30.413Z,41.68
2023-02-17T11:37:03.519Z,41.57
2023-02-17T11:39:30.740Z,41.74
2023-02-17T11:41:57.592Z,41.25
2023-02-17T11:44:28.712Z,41.77
2023-02-17T11:47:23.624Z,42.45
2023-02-17T11:50:10.319Z,42.37
2023-02-17T11:53:12.828Z,42.67
2023-02-17T11:56:09.946Z,43.22
2023-02-17T11:59:18.978Z,43.71
2023-02-17T12:02:23.420Z,43.21
2023-02-17T12:04:53.316Z,42.43
2023-02-17T12:07:20.162Z,43.49
2023-02-17T12:10:03.686Z,42.73
2023-02-17T12:13:03.955Z,42.69
2023-02-17T12:15:49.098Z,42.77
2023-02-17T12:18:49.316Z,42.72
2023-02-17T12:21:29.197Z,42.46
2023-02-17T12:24:33.474Z,43.12
2023-02-17T12:27:15.668Z,43.13
2023-02-17T12:30:10.748Z,42.91
2023-02-17T12:32:56.942Z,43.02
2023-02-17T12:35:31.558Z,43.29
2023-02-17T12:38:11.226Z,42.48
2023-02-17T12:40:43.201Z,42.63
2023-02-17T12:43:31.208Z,43.06
2023-02-17T12:46:01.350Z,43.35
2023-02-17T12:48:40.026Z,43.24
2023-02-17T12:51:12.168Z,42.69
2023-02-17T12:53:48.076Z,43.39
2023-02-17T12:56:27.372Z,42.34
2023-02-17T12:58:57.013Z,42.38
2023-02-17T13:01:30.556Z,42.17
2023-02-17T13:04:00.341Z,41.73
2023-02-17T13:06:36.694Z,42.29
2023-02-17T13:09:06.313Z,42.43
2023-02-17T13:11:35.738Z,42.44
2023-02-17T13:14:50.617Z,43.39
2023-02-17T13:17:32.680Z,42.98
2023-02-17T13:20:12.060Z,43.40
2023-02-17T13:22:41.604Z,43.01
2023-02-17T13:25:33.044Z,44.09
2023-02-17T13:28:01.870Z,44.18
2023-02-17T13:30:41.166Z,44.62
2023-02-17T13:33:30.902Z,45.06
2023-02-17T13:35:57.989Z,44.96
2023-02-17T13:38:33.094Z,45.17
2023-02-17T13:41:03.136Z,45.29
2023-02-17T13:43:31.378Z,44.87
2023-02-17T13:46:03.083Z,45.78
2023-02-17T13:48:35.371Z,46.05
2023-02-17T13:51:07.748Z,46.43
2023-02-17T13:53:37.838Z,47.07
2023-02-17T13:56:25.039Z,46.65
2023-02-17T13:58:52.063Z,46.78
2023-02-17T14:01:22.998Z,46.85
2023-02-17T14:03:55.854Z,47.15
2023-02-17T14:06:38.780Z,47.64
2023-02-17T14:09:32.688Z,47.48
2023-02-17T14:12:03.222Z,48.17
2023-02-17T14:14:35.187Z,47.86
2023-02-17T14:17:05.827Z,48.35
2023-02-17T14:19:44.489Z,48.21
2023-02-17T14:22:30.769Z,48.99
2023-02-17T14:25:07.410Z,49.08
2023-02-17T14:27:48.794Z,49.73
2023-02-17T14:30:27.208Z,49.18
2023-02-17T14:33:15.742Z,50.06
2023-02-17T14:35:53.251Z,49.28
2023-02-17T14:38:23.018Z,50.88
2023-02-17T14:40:50.273Z,51.16
2023-02-17T14:43:17.305Z,50.82
2023-02-17T14:45:44.302Z,51.58
2023-02-17T14:48:11.433Z,51.60
2023-02-17T14:50:38.429Z,52.02
2023-02-17T14:53:30.880Z,51.86
2023-02-17T14:56:10.658Z,51.77
2023-02-17T14:58:37.726Z,50.76
2023-02-17T15:01:04.884Z,51.41
2023-02-17T15:03:32.636Z,51.97
2023-02-17T15:06:01.376Z,51.67
2023-02-17T15:08:33.169Z,51.78
2023-02-17T15:11:02.317Z,51.93
2023-02-17T15:13:29.384Z,52.12
2023-02-17T15:15:56.525Z,52.04
2023-02-17T15:18:23.517Z,52.87
2023-02-17T15:20:51.899Z,52.63
2023-02-17T15:23:22.082Z,53.67
2023-02-17T15:25:49.504Z,53.73
2023-02-17T15:28:18.821Z,53.50
2023-02-17T15:30:50.734Z,53.08
2023-02-17T15:33:18.385Z,53.75
2023-02-17T15:35:46.286Z,53.90
2023-02-17T15:38:14.274Z,54.03
2023-02-17T15:40:41.736Z,54.96
2023-02-17T15:43:15.198Z,53.88
2023-02-17T15:45:42.313Z,53.43
2023-02-17T15:48:19.308Z,53.70
2023-02-17T15:50:46.374Z,53.62
2023-02-17T15:53:13.338Z,54.37
2023-02-17T15:55:41.330Z,54.05
2023-02-17T15:58:15.957Z,54.18
2023-02-17T16:00:44.262Z,54.80
2023-02-17T16:03:13.011Z,55.79
2023-02-17T16:05:41.294Z,55.82
2023-02-17T16:08:09.710Z,55.77
2023-02-17T16:10:37.314Z,56.34
2023-02-17T16:13:04.447Z,56.13
2023-02-17T16:15:33.197Z,56.38
2023-02-17T16:18:00.253Z,57.52
2023-02-17T16:20:30.453Z,58.53
2023-02-17T16:22:57.347Z,58.23
2023-02-17T16:25:25.339Z,57.79
2023-02-17T16:27:53.554Z,57.00
2023-02-17T16:30:23.400Z,56.75
2023-02-17T16:32:50.913Z,56.08
2023-02-17T16:35:24.461Z,55.88
2023-02-17T16:38:02.501Z,56.38
2023-02-17T16:40:32.052Z,55.68
2023-02-17T16:42:59.043Z,56.04
2023-02-17T16:45:29.232Z,55.89
2023-02-17T16:47:58.959Z,56.42
2023-02-17T16:50:31.480Z,56.53
2023-02-17T16:53:02.144Z,56.40
2023-02-17T16:55:31.984Z,56.37
2023-02-17T16:57:59.311Z,56.44
2023-02-17T17:00:29.638Z,57.32
2023-02-17T17:02:57.962Z,56.69
2023-02-17T17:05:27.527Z,57.28
2023-02-17T17:07:55.599Z,56.18
2023-02-17T17:10:31.181Z,56.93
2023-02-17T17:12:58.602Z,57.12
2023-02-17T17:15:25.806Z,56.86
2023-02-17T17:17:56.785Z,56.05
2023-02-17T17:20:27.386Z,57.06
2023-02-17T17:22:54.965Z,56.86
2023-02-17T17:25:22.132Z,57.19
2023-02-17T17:27:50.057Z,57.70
2023-02-17T17:30:21.237Z,57.94
2023-02-17T17:32:48.785Z,57.47
2023-02-17T17:35:16.017Z,57.18
2023-02-17T17:37:43.827Z,56.82
2023-02-17T17:40:24.970Z,57.11
2023-02-17T17:42:52.532Z,56.84
2023-02-17T17:45:20.041Z,57.54
2023-02-17T17:47:47.037Z,57.41
2023-02-17T17:50:23.149Z,57.65
2023-02-17T17:52:51.655Z,58.74
2023-02-17T17:55:18.608Z,57.99
2023-02-17T17:57:45.637Z,58.03
2023-02-17T18:00:15.115Z,57.73
2023-02-17T18:02:42.280Z,56.87
2023-02-17T18:05:09.574Z,57.15
2023-02-17T18:07:38.580Z,57.11
2023-02-17T18:10:10.150Z,57.62
2023-02-17T18:12:38.502Z,58.01
2023-02-17T18:15:07.881Z,58.35
2023-02-17T18:17:39.344Z,58.88
2023-02-17T18:20:10.704Z,58.81
2023-02-17T18:22:39.029Z,59.70
2023-02-17T18:25:07.453Z,58.55
2023-02-17T18:27:43.901Z,58.57
2023-02-17T18:30:13.459Z,58.70
2023-02-17T18:32:41.265Z,57.88
2023-02-17T18:35:09.024Z,57.73
2023-02-17T18:37:36.297Z,57.55
2023-02-17T18:40:04.420Z,57.80
2023-02-17T18:42:31.793Z,58.67
2023-02-17T18:44:58.669Z,58.86
2023-02-17T18:47:26.839Z,59.31
2023-02-17T18:49:53.820Z,58.95
2023-02-17T18:52:20.859Z,58.83
2023-02-17T18:54:47.840Z,58.56
2023-02-17T18:57:14.677Z,58.72
2023-02-17T18:59:41.630Z,58.36
2023-02-17T19:02:10.768Z,58.39
2023-02-17T19:04:38.214Z,57.87
2023-02-17T19:07:05.599Z,57.72
2023-02-17T19:09:37.775Z,58.27
2023-02-17T19:12:06.305Z,56.97
2023-02-17T19:14:33.775Z,56.83
2023-02-17T19:17:00.788Z,56.58
2023-02-17T19:19:27.782Z,56.73
2023-02-17T19:21:54.789Z,56.58
2023-02-17T19:24:21.725Z,57.59
2023-02-17T19:26:48.991Z,57.30
2023-02-17T19:29:15.912Z,57.63
2023-02-17T19:31:44.253Z,58.34
2023-02-17T19:34:11.369Z,58.31
2023-02-17T19:36:38.338Z,58.22
2023-02-17T19:39:05.293Z,57.83
2023-02-17T19:41:35.703Z,58.35
2023-02-17T19:44:03.236Z,57.02
2023-02-17T19:46:30.219Z,56.94
2023-02-17T19:48:57.227Z,57.35
2023-02-17T19:51:26.482Z,56.66
2023-02-17T19:53:53.432Z,56.72
2023-02-17T19:56:26.110Z,56.13
2023-02-17T19:58:53.893Z,56.09
2023-02-17T20:01:26.496Z,56.23
2023-02-17T20:03:54.844Z,55.97
2023-02-17T20:06:30.265Z,56.19
2023-02-17T20:09:04.952Z,56.09
2023-02-17T20:11:32.778Z,55.31
2023-02-17T20:14:01.166Z,55.63
2023-02-17T20:16:29.774Z,55.90
2023-02-17T20:18:56.829Z,55.34
2023-02-17T20:21:26.197Z,55.26
2023-02-17T20:23:53.148Z,55.66
2023-02-17T20:26:23.017Z,54.77
2023-02-17T20:28:50.309Z,54.94
2023-02-17T20:31:18.319Z,54.92
2023-02-17T20:33:45.417Z,54.69
2023-02-17T20:36:12.597Z,55.66
2023-02-17T20:38:40.674Z,54.77
2023-02-17T20:41:09.174Z,54.47
2023-02-17T20:43:37.623Z,54.97
2023-02-17T20:46:05.418Z,55.19
2023-02-17T20:48:32.895Z,54.92
2023-02-17T20:50:59.829Z,54.44
2023-02-17T20:53:26.889Z,54.69
2023-02-17T20:55:53.973Z,54.80
2023-02-17T20:58:20.930Z,55.10
2023-02-17T21:00:48.477Z,54.69
2023-02-17T21:03:15.656Z,55.00
2023-02-17T21:05:42.593Z,55.83
2023-02-17T21:08:09.913Z,55.62
2023-02-17T21:10:37.192Z,55.15
2023-02-17T21:13:04.140Z,55.77
2023-02-17T21:15:31.129Z,55.27
2023-02-17T21:17:58.104Z,55.00
2023-02-17T21:20:25.098Z,54.97
2023-02-17T21:22:52.154Z,54.73
2023-02-17T21:25:19.218Z,54.88
2023-02-17T21:27:46.204Z,54.68
2023-02-17T21:30:14.231Z,54.60
2023-02-17T21:32:41.653Z,55.55
2023-02-17T21:35:10.264Z,55.38
2023-02-17T21:37:37.297Z,55.18
2023-02-17T21:40:06.765Z,54.73
2023-02-17T21:42:33.680Z,55.12
2023-02-17T21:45:00.589Z,55.40
2023-02-17T21:47:27.560Z,54.99
2023-02-17T21:49:54.891Z,56.23
2023-02-17T21:52:22.209Z,55.97
2023-02-17T21:54:49.200Z,55.89
2023-02-17T21:57:16.218Z,56.02
2023-02-17T21:59:43.100Z,55.81
2023-02-17T22:02:13.650Z,55.32
2023-02-17T22:04:40.609Z,56.10
2023-02-17T22:07:07.523Z,56.20
2023-02-17T22:09:34.466Z,56.06
2023-02-17T22:12:01.368Z,56.29
2023-02-17T22:14:29.752Z,56.84
2023-02-17T22:16:56.663Z,55.95
2023-02-17T22:19:24.795Z,56.22
2023-02-17T22:21:52.111Z,55.98
2023-02-17T22:24:19.375Z,56.35
2023-02-17T22:26:47.105Z,55.90
2023-02-17T22:29:14.150Z,57.19
2023-02-17T22:31:41.224Z,56.63
2023-02-17T22:34:08.683Z,56.36
2023-02-17T22:36:37.138Z,55.77
2023-02-17T22:39:06.110Z,56.04
2023-02-17T22:41:34.431Z,56.38
2023-02-17T22:44:02.568Z,56.86
2023-02-17T22:46:29.790Z,57.20
2023-02-17T22:48:57.823Z,56.49
2023-02-17T22:51:28.263Z,56.08
2023-02-17T22:53:55.560Z,55.92
2023-02-17T22:56:22.934Z,56.56
2023-02-17T22:58:50.370Z,55.43
2023-02-17T23:01:20.076Z,56.28
2023-02-17T23:03:48.330Z,56.51
2023-02-17T23:06:18.532Z,56.30
2023-02-17T23:08:46.967Z,55.61
2023-02-17T23:11:16.792Z,55.29
2023-02-17T23:13:43.768Z,55.26
2023-02-17T23:16:11.347Z,55.27
2023-02-17T23:18:38.324Z,55.58
2023-02-17T23:21:11.398Z,55.91
2023-02-17T23:23:39.114Z,55.77
2023-02-17T23:26:06.819Z,55.90
2023-02-17T23:28:34.128Z,55.99
2023-02-17T23:31:01.123Z,56.25
2023-02-17T23:33:28.375Z,56.42
2023-02-17T23:35:55.301Z,55.88
2023-02-17T23:38:22.278Z,56.19
2023-02-17T23:40:52.665Z,56.01
2023-02-17T23:43:20.517Z,55.87
2023-02-17T23:45:47.473Z,54.90
2023-02-17T23:48:15.010Z,55.49
2023-02-17T23:50:42.523Z,54.62
2023-02-17T23:53:09.691Z,54.43
2023-02-17T23:55:36.666Z,54.65
2023-02-17T23:58:03.699Z,54.20
